Evergreen, Alabama
Current Conditions -  °F | °C
As of 4:53 PM on Sunday 21 Dec 2014 (Local Time) from KGZH Reporting Station
Overcast Overcast  
Wind Chill: 57°   Ceiling: 1200
Heat Index: 57°   Visibility: 8mi
Dew Point: 54°   Wind: 5mph
Humidity: 89%   Direction: 60°ENE
Pressure: 30.03"   Gusts: NA
Location:  31.43°N, 86.96°W
Report Text: KGZH 212253Z AUTO 06004KT 8SM OVC012 14/12 A3003 RMK AO2 SLP168 T01390122
Loading
Personal Weather Stations






























Interactive Weather Map New forecast layout! Learn more

10-Day Weather Forecast

Advertisements
Track Severe Weather on mobile